Goianesia, Brazil
Current Conditions -  °F | °C
As of 11:00 PM on Tuesday 25 Nov 2014 (Local Time) from SBAN Reporting Station
Broken Clouds Broken Clouds  
Wind Chill: 66°   Ceiling: 10000
Heat Index: 66°   Visibility: 6mi
Dew Point: 64°   Wind: 0mph
Humidity: 94%   Direction: NA
Pressure: 30.06"   Gusts: NA
Location:  15.32°S, 49.12°W
Report Text: SBAN 260100Z 00000KT 9999 FEW030 FEW035TCU BKN100 19/18 Q1018
Loading
Personal Weather Stations






























Interactive Weather Map New forecast layout! Learn more

10-Day Weather Forecast

Advertisements
Track Severe Weather on mobile